sensor_id;sensor_type;location;lat;lon;timestamp;pressure;altitude;pressure_sealevel;temperature;humidity
49841;BME280;35738;49.890;5.930;2022-07-23T00:01:39;95909.63;;;16.79;77.57
49841;BME280;35738;49.890;5.930;2022-07-23T00:04:07;95898.59;;;16.63;77.83
49841;BME280;35738;49.890;5.930;2022-07-23T00:06:41;95902.16;;;16.64;77.10
49841;BME280;35738;49.890;5.930;2022-07-23T00:09:08;95900.66;;;16.47;77.55
49841;BME280;35738;49.890;5.930;2022-07-23T00:11:34;95903.78;;;16.45;77.72
49841;BME280;35738;49.890;5.930;2022-07-23T00:14:01;95909.28;;;16.42;77.44
49841;BME280;35738;49.890;5.930;2022-07-23T00:16:28;95902.25;;;16.48;77.63
49841;BME280;35738;49.890;5.930;2022-07-23T00:18:55;95905.03;;;16.48;77.54
49841;BME280;35738;49.890;5.930;2022-07-23T00:21:22;95903.78;;;16.45;77.56
49841;BME280;35738;49.890;5.930;2022-07-23T00:23:49;95908.69;;;16.52;77.69
49841;BME280;35738;49.890;5.930;2022-07-23T00:26:16;95904.31;;;16.51;77.48
49841;BME280;35738;49.890;5.930;2022-07-23T00:28:42;95906.91;;;16.63;77.50
49841;BME280;35738;49.890;5.930;2022-07-23T00:31:09;95901.72;;;16.62;77.08
49841;BME280;35738;49.890;5.930;2022-07-23T00:33:36;95899.25;;;16.57;77.65
49841;BME280;35738;49.890;5.930;2022-07-23T00:36:03;95901.25;;;16.37;78.52
49841;BME280;35738;49.890;5.930;2022-07-23T00:38:30;95922.00;;;16.43;77.37
49841;BME280;35738;49.890;5.930;2022-07-23T00:40:56;95916.13;;;16.29;77.82
49841;BME280;35738;49.890;5.930;2022-07-23T00:43:23;95905.81;;;16.10;78.82
49841;BME280;35738;49.890;5.930;2022-07-23T00:45:50;95893.63;;;15.95;79.19
49841;BME280;35738;49.890;5.930;2022-07-23T00:48:18;95901.72;;;16.04;79.20
49841;BME280;35738;49.890;5.930;2022-07-23T00:50:45;95902.66;;;15.92;79.07
49841;BME280;35738;49.890;5.930;2022-07-23T00:53:12;95905.22;;;15.81;79.51
49841;BME280;35738;49.890;5.930;2022-07-23T00:55:42;95903.88;;;15.75;79.58
49841;BME280;35738;49.890;5.930;2022-07-23T00:58:09;95899.88;;;15.73;80.05
49841;BME280;35738;49.890;5.930;2022-07-23T01:00:36;95895.78;;;15.67;80.01
49841;BME280;35738;49.890;5.930;2022-07-23T01:03:04;95896.38;;;15.60;79.90
49841;BME280;35738;49.890;5.930;2022-07-23T01:05:31;95893.16;;;15.58;81.20
49841;BME280;35738;49.890;5.930;2022-07-23T01:07:57;95891.56;;;15.73;80.45
49841;BME280;35738;49.890;5.930;2022-07-23T01:10:26;95887.78;;;15.81;80.17
49841;BME280;35738;49.890;5.930;2022-07-23T01:13:03;95880.78;;;15.87;80.32
49841;BME280;35738;49.890;5.930;2022-07-23T01:15:31;95873.84;;;15.97;79.46
49841;BME280;35738;49.890;5.930;2022-07-23T01:17:58;95879.97;;;16.06;79.41
49841;BME280;35738;49.890;5.930;2022-07-23T01:20:25;95869.75;;;16.10;78.19
49841;BME280;35738;49.890;5.930;2022-07-23T01:22:53;95881.00;;;16.17;77.44
49841;BME280;35738;49.890;5.930;2022-07-23T01:25:20;95879.47;;;16.19;77.71
49841;BME280;35738;49.890;5.930;2022-07-23T01:27:47;95879.75;;;16.14;77.64
49841;BME280;35738;49.890;5.930;2022-07-23T01:30:15;95881.59;;;16.07;78.07
49841;BME280;35738;49.890;5.930;2022-07-23T01:32:42;95883.91;;;16.05;78.71
49841;BME280;35738;49.890;5.930;2022-07-23T01:35:10;95873.47;;;15.98;77.65
49841;BME280;35738;49.890;5.930;2022-07-23T01:37:37;95875.22;;;16.06;77.64
49841;BME280;35738;49.890;5.930;2022-07-23T01:40:05;95873.19;;;16.03;77.01
49841;BME280;35738;49.890;5.930;2022-07-23T01:42:32;95868.28;;;15.97;77.70
49841;BME280;35738;49.890;5.930;2022-07-23T01:45:00;95855.50;;;15.73;78.79
49841;BME280;35738;49.890;5.930;2022-07-23T01:47:27;95865.19;;;15.63;78.85
49841;BME280;35738;49.890;5.930;2022-07-23T01:49:54;95866.06;;;15.51;79.28
49841;BME280;35738;49.890;5.930;2022-07-23T01:52:22;95852.31;;;15.39;80.08
49841;BME280;35738;49.890;5.930;2022-07-23T01:54:51;95855.00;;;15.36;79.95
49841;BME280;35738;49.890;5.930;2022-07-23T01:57:18;95857.69;;;15.32;80.19
49841;BME280;35738;49.890;5.930;2022-07-23T01:59:45;95860.03;;;15.30;80.77
49841;BME280;35738;49.890;5.930;2022-07-23T02:02:11;95851.56;;;15.23;80.26
49841;BME280;35738;49.890;5.930;2022-07-23T02:04:38;95851.47;;;15.19;80.55
49841;BME280;35738;49.890;5.930;2022-07-23T02:07:05;95843.88;;;15.16;80.62
49841;BME280;35738;49.890;5.930;2022-07-23T02:09:32;95834.75;;;15.16;81.32
49841;BME280;35738;49.890;5.930;2022-07-23T02:11:59;95840.31;;;15.16;80.70
49841;BME280;35738;49.890;5.930;2022-07-23T02:14:26;95836.66;;;15.12;81.13
49841;BME280;35738;49.890;5.930;2022-07-23T02:16:53;95835.84;;;15.11;81.04
49841;BME280;35738;49.890;5.930;2022-07-23T02:19:20;95838.97;;;15.10;81.46
49841;BME280;35738;49.890;5.930;2022-07-23T02:21:47;95843.19;;;15.04;81.64
49841;BME280;35738;49.890;5.930;2022-07-23T02:24:14;95836.75;;;15.00;80.88
49841;BME280;35738;49.890;5.930;2022-07-23T02:26:41;95838.72;;;14.99;81.83
49841;BME280;35738;49.890;5.930;2022-07-23T02:29:08;95837.03;;;14.94;82.27
49841;BME280;35738;49.890;5.930;2022-07-23T02:31:35;95837.75;;;14.91;82.24
49841;BME280;35738;49.890;5.930;2022-07-23T02:34:02;95835.31;;;14.90;82.57
49841;BME280;35738;49.890;5.930;2022-07-23T02:36:30;95833.81;;;14.92;82.09
49841;BME280;35738;49.890;5.930;2022-07-23T02:38:57;95834.53;;;14.89;81.71
49841;BME280;35738;49.890;5.930;2022-07-23T02:41:24;95829.69;;;14.86;81.69
49841;BME280;35738;49.890;5.930;2022-07-23T02:43:51;95829.69;;;14.86;81.82
49841;BME280;35738;49.890;5.930;2022-07-23T02:46:18;95838.00;;;14.86;82.15
49841;BME280;35738;49.890;5.930;2022-07-23T02:48:44;95842.97;;;14.81;81.94
49841;BME280;35738;49.890;5.930;2022-07-23T02:51:11;95857.19;;;14.79;81.58
49841;BME280;35738;49.890;5.930;2022-07-23T02:53:40;95850.31;;;14.73;82.48
49841;BME280;35738;49.890;5.930;2022-07-23T02:56:08;95860.03;;;14.67;82.75
49841;BME280;35738;49.890;5.930;2022-07-23T02:58:35;95855.91;;;14.61;83.17
49841;BME280;35738;49.890;5.930;2022-07-23T03:01:02;95854.41;;;14.63;82.58
49841;BME280;35738;49.890;5.930;2022-07-23T03:03:29;95852.88;;;14.66;82.93
49841;BME280;35738;49.890;5.930;2022-07-23T03:05:56;95854.84;;;14.66;82.95
49841;BME280;35738;49.890;5.930;2022-07-23T03:08:23;95853.59;;;14.63;82.29
49841;BME280;35738;49.890;5.930;2022-07-23T03:10:50;95853.16;;;14.61;82.34
49841;BME280;35738;49.890;5.930;2022-07-23T03:13:17;95852.25;;;14.57;82.55
49841;BME280;35738;49.890;5.930;2022-07-23T03:15:43;95858.25;;;14.59;82.06
49841;BME280;35738;49.890;5.930;2022-07-23T03:18:10;95852.34;;;14.60;82.28
49841;BME280;35738;49.890;5.930;2022-07-23T03:20:37;95863.06;;;14.62;82.04
49841;BME280;35738;49.890;5.930;2022-07-23T03:23:16;95856.63;;;14.58;81.02
49841;BME280;35738;49.890;5.930;2022-07-23T03:25:42;95861.63;;;14.52;81.68
49841;BME280;35738;49.890;5.930;2022-07-23T03:28:09;95866.53;;;14.43;81.58
49841;BME280;35738;49.890;5.930;2022-07-23T03:30:36;95865.06;;;14.34;82.73
49841;BME280;35738;49.890;5.930;2022-07-23T03:33:05;95867.63;;;14.26;83.23
49841;BME280;35738;49.890;5.930;2022-07-23T03:35:32;95869.13;;;14.24;82.89
49841;BME280;35738;49.890;5.930;2022-07-23T03:38:00;95874.13;;;14.18;82.98
49841;BME280;35738;49.890;5.930;2022-07-23T03:40:27;95871.25;;;14.15;83.37
49841;BME280;35738;49.890;5.930;2022-07-23T03:42:54;95882.19;;;14.11;83.44
49841;BME280;35738;49.890;5.930;2022-07-23T03:45:20;95872.53;;;14.05;83.77
49841;BME280;35738;49.890;5.930;2022-07-23T03:47:47;95876.81;;;14.03;84.47
49841;BME280;35738;49.890;5.930;2022-07-23T03:50:14;95877.16;;;14.01;84.69
49841;BME280;35738;49.890;5.930;2022-07-23T03:52:41;95874.38;;;14.01;84.51
49841;BME280;35738;49.890;5.930;2022-07-23T03:55:09;95883.03;;;13.99;84.68
49841;BME280;35738;49.890;5.930;2022-07-23T03:57:35;95885.81;;;13.99;84.92
49841;BME280;35738;49.890;5.930;2022-07-23T04:00:05;95887.41;;;14.00;84.61
49841;BME280;35738;49.890;5.930;2022-07-23T04:02:33;95890.53;;;13.99;84.44
49841;BME280;35738;49.890;5.930;2022-07-23T04:04:59;95892.03;;;13.96;84.64
49841;BME280;35738;49.890;5.930;2022-07-23T04:07:27;95883.38;;;13.98;84.62
49841;BME280;35738;49.890;5.930;2022-07-23T04:09:54;95889.81;;;14.02;84.43
49841;BME280;35738;49.890;5.930;2022-07-23T04:12:21;95886.34;;;14.05;84.21
49841;BME280;35738;49.890;5.930;2022-07-23T04:14:48;95890.47;;;14.11;83.99
49841;BME280;35738;49.890;5.930;2022-07-23T04:17:15;95887.03;;;14.14;84.55
49841;BME280;35738;49.890;5.930;2022-07-23T04:19:42;95893.69;;;14.25;83.76
49841;BME280;35738;49.890;5.930;2022-07-23T04:22:11;95894.69;;;14.33;83.14
49841;BME280;35738;49.890;5.930;2022-07-23T04:24:38;95895.22;;;14.39;83.23
49841;BME280;35738;49.890;5.930;2022-07-23T04:27:05;95900.75;;;14.39;83.30
49841;BME280;35738;49.890;5.930;2022-07-23T04:29:32;95892.00;;;14.37;82.91
49841;BME280;35738;49.890;5.930;2022-07-23T04:31:59;95899.16;;;14.38;82.35
49841;BME280;35738;49.890;5.930;2022-07-23T04:34:26;95900.06;;;14.42;82.47
49841;BME280;35738;49.890;5.930;2022-07-23T04:36:53;95907.31;;;14.46;82.46
49841;BME280;35738;49.890;5.930;2022-07-23T04:39:20;95909.47;;;14.53;83.05
49841;BME280;35738;49.890;5.930;2022-07-23T04:41:47;95910.47;;;14.60;82.17
49841;BME280;35738;49.890;5.930;2022-07-23T04:44:14;95908.25;;;14.66;81.74
49841;BME280;35738;49.890;5.930;2022-07-23T04:46:41;95915.94;;;14.73;81.56
49841;BME280;35738;49.890;5.930;2022-07-23T04:49:09;95905.41;;;14.78;82.04
49841;BME280;35738;49.890;5.930;2022-07-23T04:51:36;95912.78;;;14.86;80.56
49841;BME280;35738;49.890;5.930;2022-07-23T04:54:03;95909.47;;;14.97;80.16
49841;BME280;35738;49.890;5.930;2022-07-23T04:56:30;95914.75;;;15.02;79.19
49841;BME280;35738;49.890;5.930;2022-07-23T04:58:58;95920.00;;;15.07;79.19
49841;BME280;35738;49.890;5.930;2022-07-23T05:01:25;95917.06;;;15.15;79.02
49841;BME280;35738;49.890;5.930;2022-07-23T05:03:52;95923.75;;;15.14;78.93
49841;BME280;35738;49.890;5.930;2022-07-23T05:06:18;95907.41;;;15.09;78.07
49841;BME280;35738;49.890;5.930;2022-07-23T05:08:49;95917.16;;;15.03;79.56
49841;BME280;35738;49.890;5.930;2022-07-23T05:11:16;95926.53;;;14.99;78.52
49841;BME280;35738;49.890;5.930;2022-07-23T05:13:43;95933.94;;;14.94;79.75
49841;BME280;35738;49.890;5.930;2022-07-23T05:16:09;95924.38;;;14.92;79.61
49841;BME280;35738;49.890;5.930;2022-07-23T05:18:39;95925.63;;;14.94;80.58
49841;BME280;35738;49.890;5.930;2022-07-23T05:21:05;95920.28;;;15.02;80.57
49841;BME280;35738;49.890;5.930;2022-07-23T05:23:33;95923.41;;;15.00;81.95
49841;BME280;35738;49.890;5.930;2022-07-23T05:26:00;95923.84;;;14.86;82.13
49841;BME280;35738;49.890;5.930;2022-07-23T05:28:26;95929.94;;;14.92;83.45
49841;BME280;35738;49.890;5.930;2022-07-23T05:30:55;95932.69;;;14.92;84.38
49841;BME280;35738;49.890;5.930;2022-07-23T05:33:22;95931.91;;;15.07;84.26
49841;BME280;35738;49.890;5.930;2022-07-23T05:35:48;95936.97;;;15.37;83.60
49841;BME280;35738;49.890;5.930;2022-07-23T05:38:15;95932.09;;;15.62;82.30
49841;BME280;35738;49.890;5.930;2022-07-23T05:40:42;95938.44;;;15.97;80.21
49841;BME280;35738;49.890;5.930;2022-07-23T05:43:09;95938.72;;;15.92;78.10
49841;BME280;35738;49.890;5.930;2022-07-23T05:45:36;95938.97;;;16.22;76.52
49841;BME280;35738;49.890;5.930;2022-07-23T05:48:03;95948.13;;;16.80;74.12
49841;BME280;35738;49.890;5.930;2022-07-23T05:50:32;95958.03;;;17.01;73.13
49841;BME280;35738;49.890;5.930;2022-07-23T05:53:00;95947.06;;;17.54;70.59
49841;BME280;35738;49.890;5.930;2022-07-23T05:55:28;95952.97;;;18.28;68.68
49841;BME280;35738;49.890;5.930;2022-07-23T05:57:56;95949.03;;;18.29;67.57
49841;BME280;35738;49.890;5.930;2022-07-23T06:00:23;95956.22;;;17.31;70.51
49841;BME280;35738;49.890;5.930;2022-07-23T06:02:53;95967.09;;;17.86;68.78
49841;BME280;35738;49.890;5.930;2022-07-23T06:05:21;95964.44;;;18.23;67.10
49841;BME280;35738;49.890;5.930;2022-07-23T06:07:49;95955.72;;;18.54;65.29
49841;BME280;35738;49.890;5.930;2022-07-23T06:10:25;95970.81;;;19.17;63.92
49841;BME280;35738;49.890;5.930;2022-07-23T06:12:52;95964.13;;;18.88;63.63
49841;BME280;35738;49.890;5.930;2022-07-23T06:15:24;95971.00;;;18.64;64.83
49841;BME280;35738;49.890;5.930;2022-07-23T06:17:51;95963.59;;;19.12;63.26
49841;BME280;35738;49.890;5.930;2022-07-23T06:20:18;95967.44;;;19.00;63.77
49841;BME280;35738;49.890;5.930;2022-07-23T06:22:45;95958.31;;;19.41;62.81
49841;BME280;35738;49.890;5.930;2022-07-23T06:25:12;95962.91;;;19.59;61.55
49841;BME280;35738;49.890;5.930;2022-07-23T06:27:45;95964.34;;;19.09;62.92
49841;BME280;35738;49.890;5.930;2022-07-23T06:30:13;95966.84;;;18.54;64.57
49841;BME280;35738;49.890;5.930;2022-07-23T06:32:43;95972.50;;;19.28;61.97
49841;BME280;35738;49.890;5.930;2022-07-23T06:35:10;95977.91;;;19.92;59.64
49841;BME280;35738;49.890;5.930;2022-07-23T06:37:37;95973.50;;;20.42;58.70
49841;BME280;35738;49.890;5.930;2022-07-23T06:40:04;95978.31;;;20.52;57.68
49841;BME280;35738;49.890;5.930;2022-07-23T06:42:31;95977.81;;;20.36;58.48
49841;BME280;35738;49.890;5.930;2022-07-23T06:44:58;95974.53;;;20.92;57.13
49841;BME280;35738;49.890;5.930;2022-07-23T06:47:25;95981.06;;;21.29;56.18
49841;BME280;35738;49.890;5.930;2022-07-23T06:49:52;95985.13;;;21.74;54.62
49841;BME280;35738;49.890;5.930;2022-07-23T06:52:20;95989.91;;;21.59;54.93
49841;BME280;35738;49.890;5.930;2022-07-23T06:54:48;95988.34;;;22.04;53.08
49841;BME280;35738;49.890;5.930;2022-07-23T06:57:15;95974.28;;;22.58;51.74
49841;BME280;35738;49.890;5.930;2022-07-23T06:59:42;95993.47;;;22.63;51.30
49841;BME280;35738;49.890;5.930;2022-07-23T07:02:09;95996.72;;;22.43;52.17
49841;BME280;35738;49.890;5.930;2022-07-23T07:04:35;95997.94;;;22.35;52.17
49841;BME280;35738;49.890;5.930;2022-07-23T07:07:02;96003.16;;;22.30;51.59
49841;BME280;35738;49.890;5.930;2022-07-23T07:09:37;95997.94;;;21.96;52.37
49841;BME280;35738;49.890;5.930;2022-07-23T07:12:05;96006.59;;;23.05;50.94
49841;BME280;35738;49.890;5.930;2022-07-23T07:14:32;95998.16;;;23.08;50.19
49841;BME280;35738;49.890;5.930;2022-07-23T07:16:58;96003.56;;;22.35;52.04
49841;BME280;35738;49.890;5.930;2022-07-23T07:19:26;96006.28;;;22.60;50.56
49841;BME280;35738;49.890;5.930;2022-07-23T07:21:53;96007.47;;;22.70;49.26
49841;BME280;35738;49.890;5.930;2022-07-23T07:24:20;96009.38;;;23.01;48.75
49841;BME280;35738;49.890;5.930;2022-07-23T07:26:48;96009.00;;;23.06;47.38
49841;BME280;35738;49.890;5.930;2022-07-23T07:29:15;96007.97;;;23.49;46.80
49841;BME280;35738;49.890;5.930;2022-07-23T07:31:41;96009.94;;;22.43;48.59
49841;BME280;35738;49.890;5.930;2022-07-23T07:34:08;96000.22;;;22.90;48.02
49841;BME280;35738;49.890;5.930;2022-07-23T07:36:35;96010.19;;;23.86;46.79
49841;BME280;35738;49.890;5.930;2022-07-23T07:39:04;96010.88;;;23.31;47.51
49841;BME280;35738;49.890;5.930;2022-07-23T07:41:31;96005.47;;;22.67;48.46
49841;BME280;35738;49.890;5.930;2022-07-23T07:43:59;96009.16;;;22.35;50.25
49841;BME280;35738;49.890;5.930;2022-07-23T07:46:26;96013.94;;;22.17;50.54
49841;BME280;35738;49.890;5.930;2022-07-23T07:48:54;96021.06;;;21.47;51.48
49841;BME280;35738;49.890;5.930;2022-07-23T07:51:23;96030.22;;;21.37;52.47
49841;BME280;35738;49.890;5.930;2022-07-23T07:53:51;96029.09;;;21.59;52.00
49841;BME280;35738;49.890;5.930;2022-07-23T07:56:18;96023.00;;;20.45;54.18
49841;BME280;35738;49.890;5.930;2022-07-23T07:58:45;96029.53;;;20.74;54.10
49841;BME280;35738;49.890;5.930;2022-07-23T08:01:12;96025.41;;;20.50;54.67
49841;BME280;35738;49.890;5.930;2022-07-23T08:03:38;96025.41;;;20.50;54.77
49841;BME280;35738;49.890;5.930;2022-07-23T08:06:05;96028.72;;;20.70;53.90
49841;BME280;35738;49.890;5.930;2022-07-23T08:08:32;96022.38;;;20.80;53.84
49841;BME280;35738;49.890;5.930;2022-07-23T08:10:59;96024.06;;;20.92;53.08
49841;BME280;35738;49.890;5.930;2022-07-23T08:13:26;96027.84;;;20.59;54.72
49841;BME280;35738;49.890;5.930;2022-07-23T08:15:52;96025.34;;;20.40;55.30
49841;BME280;35738;49.890;5.930;2022-07-23T08:18:22;96032.94;;;20.39;55.32
49841;BME280;35738;49.890;5.930;2022-07-23T08:20:49;96027.53;;;20.71;54.22
49841;BME280;35738;49.890;5.930;2022-07-23T08:23:16;96026.38;;;20.79;53.48
49841;BME280;35738;49.890;5.930;2022-07-23T08:25:46;96029.63;;;20.88;53.81
49841;BME280;35738;49.890;5.930;2022-07-23T08:28:14;96033.06;;;20.60;55.32
49841;BME280;35738;49.890;5.930;2022-07-23T08:30:42;96030.69;;;20.66;55.01
49841;BME280;35738;49.890;5.930;2022-07-23T08:33:12;96031.78;;;21.23;53.72
49841;BME280;35738;49.890;5.930;2022-07-23T08:35:59;96029.44;;;21.47;53.06
49841;BME280;35738;49.890;5.930;2022-07-23T08:38:28;96035.44;;;21.45;52.25
49841;BME280;35738;49.890;5.930;2022-07-23T08:40:55;96033.03;;;21.37;53.63
49841;BME280;35738;49.890;5.930;2022-07-23T08:43:25;96043.56;;;22.11;52.57
49841;BME280;35738;49.890;5.930;2022-07-23T08:45:55;96037.06;;;21.50;52.56
49841;BME280;35738;49.890;5.930;2022-07-23T08:48:31;96038.66;;;21.51;53.52
49841;BME280;35738;49.890;5.930;2022-07-23T08:51:01;96036.31;;;21.60;52.38
49841;BME280;35738;49.890;5.930;2022-07-23T08:53:32;96032.97;;;21.22;53.36
49841;BME280;35738;49.890;5.930;2022-07-23T08:56:03;96035.13;;;21.72;53.55
49841;BME280;35738;49.890;5.930;2022-07-23T08:58:30;96042.69;;;21.61;52.83
49841;BME280;35738;49.890;5.930;2022-07-23T09:00:58;96040.72;;;21.82;52.35
49841;BME280;35738;49.890;5.930;2022-07-23T09:03:28;96041.97;;;22.06;51.83
49841;BME280;35738;49.890;5.930;2022-07-23T09:05:59;96030.34;;;21.94;52.51
49841;BME280;35738;49.890;5.930;2022-07-23T09:08:42;96040.25;;;21.52;52.18
49841;BME280;35738;49.890;5.930;2022-07-23T09:11:11;96044.72;;;21.67;52.19
49841;BME280;35738;49.890;5.930;2022-07-23T09:13:41;96045.44;;;21.50;52.24
49841;BME280;35738;49.890;5.930;2022-07-23T09:16:13;96038.72;;;21.94;52.42
49841;BME280;35738;49.890;5.930;2022-07-23T09:18:45;96048.31;;;21.78;51.51
49841;BME280;35738;49.890;5.930;2022-07-23T09:21:26;96045.94;;;21.91;51.69
49841;BME280;35738;49.890;5.930;2022-07-23T09:24:05;96039.19;;;22.31;51.94
49841;BME280;35738;49.890;5.930;2022-07-23T09:26:43;96048.78;;;22.30;49.97
49841;BME280;35738;49.890;5.930;2022-07-23T09:29:18;96043.59;;;22.32;50.53
49841;BME280;35738;49.890;5.930;2022-07-23T09:32:02;96059.97;;;22.16;50.95
49841;BME280;35738;49.890;5.930;2022-07-23T09:34:33;96056.38;;;22.15;50.59
49841;BME280;35738;49.890;5.930;2022-07-23T09:37:14;96069.97;;;22.28;52.01
49841;BME280;35738;49.890;5.930;2022-07-23T09:39:44;96055.97;;;22.52;50.83
49841;BME280;35738;49.890;5.930;2022-07-23T09:42:22;96045.06;;;23.04;50.16
49841;BME280;35738;49.890;5.930;2022-07-23T09:44:54;96057.50;;;22.78;50.21
49841;BME280;35738;49.890;5.930;2022-07-23T09:47:24;96053.13;;;22.81;49.89
49841;BME280;35738;49.890;5.930;2022-07-23T09:52:31;96068.38;;;22.27;50.55
49841;BME280;35738;49.890;5.930;2022-07-23T09:55:05;96061.97;;;22.55;50.51
49841;BME280;35738;49.890;5.930;2022-07-23T09:57:34;96053.91;;;22.74;49.98
49841;BME280;35738;49.890;5.930;2022-07-23T10:00:09;96056.38;;;22.40;50.13
49841;BME280;35738;49.890;5.930;2022-07-23T10:02:37;96065.56;;;22.19;50.67
49841;BME280;35738;49.890;5.930;2022-07-23T10:05:05;96063.56;;;22.06;50.55
49841;BME280;35738;49.890;5.930;2022-07-23T10:07:34;96069.53;;;21.94;51.24
49841;BME280;35738;49.890;5.930;2022-07-23T10:10:04;96069.13;;;21.84;50.87
49841;BME280;35738;49.890;5.930;2022-07-23T10:12:31;96071.19;;;22.09;50.95
49841;BME280;35738;49.890;5.930;2022-07-23T10:15:10;96066.78;;;22.22;49.58
49841;BME280;35738;49.890;5.930;2022-07-23T10:17:37;96060.38;;;22.39;48.54
49841;BME280;35738;49.890;5.930;2022-07-23T10:20:04;96053.91;;;22.85;47.54
49841;BME280;35738;49.890;5.930;2022-07-23T10:22:35;96061.53;;;22.67;47.08
49841;BME280;35738;49.890;5.930;2022-07-23T10:30:33;96054.66;;;23.03;45.97
49841;BME280;35738;49.890;5.930;2022-07-23T10:33:11;96044.44;;;23.52;45.15
49841;BME280;35738;49.890;5.930;2022-07-23T10:38:25;96043.16;;;24.30;43.69
49841;BME280;35738;49.890;5.930;2022-07-23T10:43:22;96041.28;;;23.43;43.87
49841;BME280;35738;49.890;5.930;2022-07-23T10:45:49;96047.56;;;23.72;44.02
49841;BME280;35738;49.890;5.930;2022-07-23T10:51:13;96050.72;;;23.85;44.04
49841;BME280;35738;49.890;5.930;2022-07-23T10:56:15;96044.38;;;23.66;41.63
49841;BME280;35738;49.890;5.930;2022-07-23T10:58:49;96051.31;;;23.44;42.37
49841;BME280;35738;49.890;5.930;2022-07-23T11:01:35;96054.34;;;23.74;42.75
49841;BME280;35738;49.890;5.930;2022-07-23T11:04:04;96047.22;;;23.59;42.78
49841;BME280;35738;49.890;5.930;2022-07-23T11:09:38;96044.16;;;23.29;43.55
49841;BME280;35738;49.890;5.930;2022-07-23T11:15:11;96050.44;;;23.61;43.04
49841;BME280;35738;49.890;5.930;2022-07-23T11:20:21;96041.47;;;24.81;41.88
49841;BME280;35738;49.890;5.930;2022-07-23T11:28:17;96038.47;;;24.13;41.95
49841;BME280;35738;49.890;5.930;2022-07-23T11:30:47;96037.00;;;24.46;42.23
49841;BME280;35738;49.890;5.930;2022-07-23T11:35:45;96038.66;;;25.18;39.78
49841;BME280;35738;49.890;5.930;2022-07-23T11:40:46;96036.56;;;24.88;40.17
49841;BME280;35738;49.890;5.930;2022-07-23T11:43:13;96041.44;;;24.84;40.40
49841;BME280;35738;49.890;5.930;2022-07-23T11:46:00;96043.81;;;24.45;40.89
49841;BME280;35738;49.890;5.930;2022-07-23T11:48:29;96046.53;;;24.59;40.81
49841;BME280;35738;49.890;5.930;2022-07-23T11:50:57;96038.09;;;24.59;40.92
49841;BME280;35738;49.890;5.930;2022-07-23T11:53:30;96048.22;;;24.46;40.32
49841;BME280;35738;49.890;5.930;2022-07-23T11:56:07;96039.25;;;24.13;40.59
49841;BME280;35738;49.890;5.930;2022-07-23T11:58:37;96036.63;;;23.88;42.06
49841;BME280;35738;49.890;5.930;2022-07-23T12:01:04;96036.78;;;23.63;42.01
49841;BME280;35738;49.890;5.930;2022-07-23T12:03:31;96045.97;;;23.67;41.97
49841;BME280;35738;49.890;5.930;2022-07-23T12:05:59;96044.03;;;24.16;40.84
49841;BME280;35738;49.890;5.930;2022-07-23T12:08:26;96040.88;;;24.62;40.45
49841;BME280;35738;49.890;5.930;2022-07-23T12:10:53;96043.19;;;24.71;39.94
49841;BME280;35738;49.890;5.930;2022-07-23T12:13:21;96045.75;;;24.03;40.54
49841;BME280;35738;49.890;5.930;2022-07-23T12:15:51;96046.47;;;24.14;40.62
49841;BME280;35738;49.890;5.930;2022-07-23T12:18:25;96042.56;;;24.53;40.88
49841;BME280;35738;49.890;5.930;2022-07-23T12:20:57;96048.53;;;24.58;40.96
49841;BME280;35738;49.890;5.930;2022-07-23T12:23:29;96056.88;;;24.69;39.21
49841;BME280;35738;49.890;5.930;2022-07-23T12:26:01;96046.16;;;24.57;38.60
49841;BME280;35738;49.890;5.930;2022-07-23T12:28:30;96040.84;;;24.66;39.64
49841;BME280;35738;49.890;5.930;2022-07-23T12:30:58;96046.41;;;24.69;40.07
49841;BME280;35738;49.890;5.930;2022-07-23T12:33:33;96042.72;;;24.35;40.12
49841;BME280;35738;49.890;5.930;2022-07-23T12:36:02;96046.41;;;24.21;40.91
49841;BME280;35738;49.890;5.930;2022-07-23T12:41:07;96044.72;;;24.79;40.22
49841;BME280;35738;49.890;5.930;2022-07-23T12:43:40;96048.59;;;25.30;39.04
49841;BME280;35738;49.890;5.930;2022-07-23T12:51:29;96040.91;;;25.34;37.97
49841;BME280;35738;49.890;5.930;2022-07-23T12:53:58;96040.69;;;25.18;38.79
49841;BME280;35738;49.890;5.930;2022-07-23T12:56:39;96042.53;;;25.62;38.22
49841;BME280;35738;49.890;5.930;2022-07-23T12:59:09;96046.63;;;25.23;38.47
49841;BME280;35738;49.890;5.930;2022-07-23T13:01:45;96044.19;;;25.25;38.27
49841;BME280;35738;49.890;5.930;2022-07-23T13:04:21;96055.53;;;25.18;38.65
49841;BME280;35738;49.890;5.930;2022-07-23T13:06:56;96053.06;;;25.24;38.39
49841;BME280;35738;49.890;5.930;2022-07-23T13:09:32;96058.75;;;25.20;38.59
49841;BME280;35738;49.890;5.930;2022-07-23T13:12:07;96050.53;;;24.99;38.69
49841;BME280;35738;49.890;5.930;2022-07-23T13:14:36;96051.13;;;24.80;38.84
49841;BME280;35738;49.890;5.930;2022-07-23T13:17:03;96058.31;;;24.39;39.46
49841;BME280;35738;49.890;5.930;2022-07-23T13:19:32;96052.63;;;24.47;39.65
49841;BME280;35738;49.890;5.930;2022-07-23T13:21:58;96049.41;;;24.89;38.75
49841;BME280;35738;49.890;5.930;2022-07-23T13:24:29;96052.78;;;25.49;38.14
49841;BME280;35738;49.890;5.930;2022-07-23T13:26:56;96053.25;;;25.74;36.71
49841;BME280;35738;49.890;5.930;2022-07-23T13:29:24;96056.72;;;26.12;36.81
49841;BME280;35738;49.890;5.930;2022-07-23T13:31:51;96054.81;;;26.33;36.25
49841;BME280;35738;49.890;5.930;2022-07-23T13:34:17;96052.72;;;25.83;35.04
49841;BME280;35738;49.890;5.930;2022-07-23T13:36:45;96053.25;;;25.44;35.92
49841;BME280;35738;49.890;5.930;2022-07-23T13:39:12;96047.53;;;25.17;37.21
49841;BME280;35738;49.890;5.930;2022-07-23T13:41:39;96052.91;;;25.38;37.61
49841;BME280;35738;49.890;5.930;2022-07-23T13:44:15;96048.94;;;25.66;36.73
49841;BME280;35738;49.890;5.930;2022-07-23T13:46:41;96037.53;;;26.04;35.75
49841;BME280;35738;49.890;5.930;2022-07-23T13:49:08;96045.66;;;25.98;36.59
49841;BME280;35738;49.890;5.930;2022-07-23T13:51:36;96051.50;;;25.84;36.33
49841;BME280;35738;49.890;5.930;2022-07-23T13:54:03;96046.44;;;25.98;36.63